createdAt,value
2023-12-14T00:00:29.027Z,19.34
2023-12-14T00:01:29.109Z,19.35
2023-12-14T00:02:29.114Z,19.34
2023-12-14T00:03:29.100Z,19.35
2023-12-14T00:04:29.212Z,19.35
2023-12-14T00:05:29.154Z,19.32
2023-12-14T00:06:29.440Z,19.31
2023-12-14T00:07:29.250Z,19.38
2023-12-14T00:08:29.241Z,19.35
2023-12-14T00:09:29.468Z,19.31
2023-12-14T00:10:29.343Z,19.34
2023-12-14T00:12:29.328Z,19.34
2023-12-14T00:13:29.812Z,19.38
2023-12-14T00:15:29.474Z,19.31
2023-12-14T00:16:29.443Z,19.31
2023-12-14T00:17:29.628Z,19.34
2023-12-14T00:18:29.485Z,19.31
2023-12-14T00:19:29.586Z,19.28
2023-12-14T00:20:29.843Z,19.28
2023-12-14T00:21:29.584Z,19.31
2023-12-14T00:22:29.636Z,19.34
2023-12-14T00:23:29.610Z,19.28
2023-12-14T00:24:29.685Z,19.31
2023-12-14T00:25:29.847Z,19.30
2023-12-14T00:26:29.701Z,19.31
2023-12-14T00:28:32.341Z,19.34
2023-12-14T00:29:29.816Z,19.24
2023-12-14T00:30:29.835Z,19.32
2023-12-14T00:31:29.937Z,19.24
2023-12-14T00:32:29.903Z,19.28
2023-12-14T00:34:29.924Z,19.28
2023-12-14T00:35:30.221Z,19.28
2023-12-14T00:36:29.944Z,19.30
2023-12-14T00:37:29.974Z,19.25
2023-12-14T00:38:30.110Z,19.24
2023-12-14T00:39:30.020Z,19.25
2023-12-14T00:40:30.241Z,19.24
2023-12-14T00:41:30.174Z,19.25
2023-12-14T00:42:30.395Z,19.31
2023-12-14T00:43:30.137Z,19.28
2023-12-14T00:44:30.157Z,19.31
2023-12-14T00:45:30.175Z,19.27
2023-12-14T00:46:30.253Z,19.24
2023-12-14T00:47:30.261Z,19.28
2023-12-14T00:48:30.251Z,19.17
2023-12-14T00:49:30.585Z,19.25
2023-12-14T00:50:30.337Z,19.24
2023-12-14T00:51:30.315Z,19.31
2023-12-14T00:52:30.388Z,19.20
2023-12-14T00:53:30.377Z,19.17
2023-12-14T00:54:30.394Z,19.20
2023-12-14T00:55:30.453Z,19.20
2023-12-14T00:56:30.819Z,19.21
2023-12-14T00:57:30.479Z,19.25
2023-12-14T00:58:30.617Z,19.21
2023-12-14T00:59:30.630Z,19.17
2023-12-14T01:00:30.547Z,19.17
2023-12-14T01:01:30.677Z,19.16
2023-12-14T01:02:30.635Z,19.17
2023-12-14T01:03:31.018Z,19.17
2023-12-14T01:04:30.665Z,19.12
2023-12-14T01:05:30.778Z,19.15
2023-12-14T01:06:30.698Z,19.23
2023-12-14T01:07:30.760Z,19.16
2023-12-14T01:08:30.758Z,19.16
2023-12-14T01:09:30.799Z,19.16
2023-12-14T01:10:31.123Z,19.15
2023-12-14T01:11:30.826Z,19.23
2023-12-14T01:12:30.857Z,19.20
2023-12-14T01:13:30.964Z,19.10
2023-12-14T01:14:30.904Z,19.13
2023-12-14T01:15:30.937Z,19.10
2023-12-14T01:16:30.973Z,19.10
2023-12-14T01:17:31.314Z,19.12
2023-12-14T01:18:31.187Z,19.10
2023-12-14T01:19:31.138Z,19.06
2023-12-14T01:20:31.068Z,19.09
2023-12-14T01:21:31.085Z,19.07
2023-12-14T01:22:31.160Z,19.13
2023-12-14T01:23:31.141Z,19.09
2023-12-14T01:24:31.536Z,19.07
2023-12-14T01:25:31.256Z,19.12
2023-12-14T01:26:31.220Z,19.09
2023-12-14T01:27:31.253Z,19.12
2023-12-14T01:28:31.311Z,19.07
2023-12-14T01:30:31.355Z,19.09
2023-12-14T01:31:31.694Z,19.06
2023-12-14T01:32:31.456Z,19.10
2023-12-14T01:34:31.496Z,19.12
2023-12-14T01:36:31.512Z,19.07
2023-12-14T01:37:31.539Z,19.09
2023-12-14T01:38:31.818Z,19.13
2023-12-14T01:41:31.697Z,19.12
2023-12-14T01:42:31.898Z,19.06
2023-12-14T01:43:31.743Z,19.13
2023-12-14T01:44:31.856Z,19.01
2023-12-14T01:45:31.975Z,19.06
2023-12-14T01:46:31.778Z,19.10
2023-12-14T01:47:31.816Z,19.09
2023-12-14T01:48:31.890Z,18.99
2023-12-14T01:49:31.962Z,18.97
2023-12-14T01:50:31.893Z,19.05
2023-12-14T01:51:31.855Z,19.06
2023-12-14T01:52:32.449Z,18.94
2023-12-14T01:53:31.906Z,19.06
2023-12-14T01:54:31.945Z,19.07
2023-12-14T01:55:32.067Z,19.02
2023-12-14T01:56:31.979Z,19.02
2023-12-14T01:57:32.010Z,19.05
2023-12-14T01:58:32.082Z,19.01
2023-12-14T01:59:32.359Z,18.99
2023-12-14T02:00:32.199Z,19.05
2023-12-14T02:01:32.138Z,19.01
2023-12-14T02:03:32.194Z,18.97
2023-12-14T02:04:32.304Z,18.97
2023-12-14T02:06:32.236Z,18.99
2023-12-14T02:07:32.578Z,19.01
2023-12-14T02:08:32.317Z,18.91
2023-12-14T02:09:32.330Z,18.99
2023-12-14T02:11:32.402Z,18.99
2023-12-14T02:12:32.631Z,19.05
2023-12-14T02:13:32.430Z,18.89
2023-12-14T02:14:32.743Z,18.99
2023-12-14T02:15:32.479Z,18.97
2023-12-14T02:16:32.497Z,18.91
2023-12-14T02:17:32.529Z,18.97
2023-12-14T02:18:32.615Z,18.94
2023-12-14T02:19:32.623Z,18.91
2023-12-14T02:20:32.591Z,18.94
2023-12-14T02:21:32.925Z,18.96
2023-12-14T02:22:32.962Z,18.94
2023-12-14T02:23:32.662Z,19.01
2023-12-14T02:24:32.724Z,18.94
2023-12-14T02:25:32.771Z,18.99
2023-12-14T02:27:32.787Z,19.06
2023-12-14T02:28:33.082Z,18.96
2023-12-14T02:29:32.840Z,18.91
2023-12-14T02:30:32.855Z,18.90
2023-12-14T02:31:32.929Z,18.93
2023-12-14T02:32:33.083Z,18.87
2023-12-14T02:33:32.950Z,19.06
2023-12-14T02:35:33.270Z,18.83
2023-12-14T02:36:32.998Z,18.96
2023-12-14T02:37:33.129Z,18.94
2023-12-14T02:38:33.118Z,18.91
2023-12-14T02:39:33.073Z,19.06
2023-12-14T02:40:33.142Z,18.97
2023-12-14T02:41:33.119Z,18.87
2023-12-14T02:42:33.683Z,18.89
2023-12-14T02:43:33.177Z,18.94
2023-12-14T02:44:33.212Z,18.97
2023-12-14T02:45:33.224Z,19.02
2023-12-14T02:46:33.317Z,19.06
2023-12-14T02:47:33.281Z,18.96
2023-12-14T02:48:33.691Z,19.01
2023-12-14T02:49:33.369Z,18.97
2023-12-14T02:51:33.368Z,18.90
2023-12-14T02:52:33.928Z,18.91
2023-12-14T02:53:33.448Z,18.86
2023-12-14T02:54:33.736Z,18.89
2023-12-14T02:55:33.474Z,18.93
2023-12-14T02:56:33.517Z,18.94
2023-12-14T02:57:33.520Z,18.91
2023-12-14T02:58:33.562Z,18.93
2023-12-14T02:59:33.563Z,18.93
2023-12-14T03:00:33.998Z,18.94
2023-12-14T03:01:33.657Z,18.83
2023-12-14T03:02:33.859Z,18.93
2023-12-14T03:03:33.730Z,18.86
2023-12-14T03:04:33.753Z,18.93
2023-12-14T03:05:33.767Z,18.87
2023-12-14T03:06:33.753Z,18.87
2023-12-14T03:07:34.098Z,18.90
2023-12-14T03:08:33.795Z,18.89
2023-12-14T03:09:33.821Z,18.84
2023-12-14T03:10:33.986Z,18.93
2023-12-14T03:11:33.905Z,18.96
2023-12-14T03:12:34.515Z,18.87
2023-12-14T03:13:33.964Z,18.91
2023-12-14T03:14:34.253Z,18.87
2023-12-14T03:19:34.098Z,18.90
2023-12-14T03:20:34.098Z,18.90
2023-12-14T03:21:34.425Z,18.84
2023-12-14T03:22:34.515Z,18.90
2023-12-14T03:23:34.182Z,18.91
2023-12-14T03:24:34.196Z,18.91
2023-12-14T03:25:34.268Z,18.87
2023-12-14T03:26:34.256Z,18.93
2023-12-14T03:27:34.280Z,18.87
2023-12-14T03:28:34.644Z,18.84
2023-12-14T03:29:34.356Z,18.87
2023-12-14T03:30:34.453Z,18.89
2023-12-14T03:31:34.517Z,18.91
2023-12-14T03:35:34.780Z,18.91
2023-12-14T03:36:34.538Z,18.87
2023-12-14T03:37:34.577Z,18.90
2023-12-14T03:39:34.603Z,18.86
2023-12-14T03:40:34.631Z,18.94
2023-12-14T03:41:34.628Z,18.89
2023-12-14T03:42:35.228Z,18.84
2023-12-14T03:43:34.706Z,18.86
2023-12-14T03:44:34.721Z,18.93
2023-12-14T03:45:34.727Z,18.79
2023-12-14T03:46:34.783Z,18.82
2023-12-14T03:47:34.775Z,18.89
2023-12-14T03:48:34.902Z,18.82
2023-12-14T03:49:35.130Z,18.93
2023-12-14T03:50:34.867Z,18.87
2023-12-14T03:51:34.888Z,18.75
2023-12-14T03:52:35.491Z,18.91
2023-12-14T03:53:34.952Z,18.87
2023-12-14T03:54:34.957Z,18.78
2023-12-14T03:55:34.998Z,18.78
2023-12-14T03:56:35.314Z,18.87
2023-12-14T03:57:35.034Z,18.87
2023-12-14T03:58:35.104Z,18.76
2023-12-14T03:59:36.288Z,18.76
2023-12-14T04:00:35.514Z,18.78
2023-12-14T04:01:35.450Z,18.82
2023-12-14T04:02:35.399Z,18.83
2023-12-14T04:03:35.484Z,18.83
2023-12-14T04:04:35.265Z,18.76
2023-12-14T04:05:35.388Z,18.75
2023-12-14T04:06:35.265Z,18.82
2023-12-14T04:08:35.312Z,18.79
2023-12-14T04:09:35.338Z,18.82
2023-12-14T04:10:35.728Z,18.83
2023-12-14T04:11:35.380Z,18.87
2023-12-14T04:12:35.600Z,18.79
2023-12-14T04:13:35.511Z,18.78
2023-12-14T04:14:35.471Z,18.79
2023-12-14T04:16:35.584Z,18.78
2023-12-14T04:17:36.041Z,18.86
2023-12-14T04:19:35.646Z,18.79
2023-12-14T04:20:35.650Z,18.78
2023-12-14T04:21:35.697Z,18.82
2023-12-14T04:22:35.986Z,18.78
2023-12-14T04:23:35.718Z,18.76
2023-12-14T04:24:35.975Z,18.71
2023-12-14T04:26:35.777Z,18.76
2023-12-14T04:27:35.891Z,18.83
2023-12-14T04:28:35.833Z,18.78
2023-12-14T04:29:35.847Z,18.71
2023-12-14T04:30:35.929Z,18.74
2023-12-14T04:31:36.238Z,18.79
2023-12-14T04:32:36.136Z,18.76
2023-12-14T04:33:35.964Z,18.78
2023-12-14T04:34:35.982Z,18.74
2023-12-14T04:35:35.990Z,18.78
2023-12-14T04:36:36.013Z,18.78
2023-12-14T04:37:36.076Z,18.72
2023-12-14T04:38:36.363Z,18.76
2023-12-14T04:39:36.099Z,18.78
2023-12-14T04:40:36.165Z,18.72
2023-12-14T04:41:36.137Z,18.74
2023-12-14T04:42:36.504Z,18.72
2023-12-14T04:43:36.219Z,18.75
2023-12-14T04:45:36.544Z,18.75
2023-12-14T04:47:36.321Z,18.75
2023-12-14T04:48:36.488Z,18.71
2023-12-14T04:49:36.371Z,18.71
2023-12-14T04:50:36.371Z,18.72
2023-12-14T04:51:36.396Z,18.74
2023-12-14T04:52:37.004Z,18.68
2023-12-14T04:53:36.441Z,18.72
2023-12-14T04:54:36.487Z,18.72
2023-12-14T04:55:36.645Z,18.72
2023-12-14T04:57:36.570Z,18.68
2023-12-14T04:58:36.882Z,18.72
2023-12-14T04:59:36.606Z,18.74
2023-12-14T05:00:36.634Z,18.74
2023-12-14T05:01:36.714Z,18.64
2023-12-14T05:02:36.894Z,18.66
2023-12-14T05:05:37.116Z,18.71
2023-12-14T05:06:36.881Z,18.68
2023-12-14T05:07:36.818Z,18.68
2023-12-14T05:08:36.850Z,18.62
2023-12-14T05:09:36.861Z,18.66
2023-12-14T05:10:37.356Z,18.71
2023-12-14T05:11:36.898Z,18.65
2023-12-14T05:12:37.456Z,18.65
2023-12-14T05:13:36.959Z,18.68
2023-12-14T05:14:36.969Z,18.60
2023-12-14T05:15:37.008Z,18.66
2023-12-14T05:16:37.029Z,18.65
2023-12-14T05:17:37.083Z,18.71
2023-12-14T05:18:37.411Z,18.68
2023-12-14T05:19:37.602Z,18.69
2023-12-14T05:20:37.152Z,18.60
2023-12-14T05:21:37.179Z,18.66
2023-12-14T05:22:37.527Z,18.65
2023-12-14T05:23:37.205Z,18.64
2023-12-14T05:24:37.565Z,18.62
2023-12-14T05:25:37.272Z,18.57
2023-12-14T05:26:37.291Z,18.64
2023-12-14T05:27:37.374Z,18.64
2023-12-14T05:28:37.364Z,18.62
2023-12-14T05:29:37.358Z,18.74
2023-12-14T05:31:37.461Z,18.64
2023-12-14T05:32:38.246Z,18.68
2023-12-14T05:33:37.698Z,18.62
2023-12-14T05:34:37.554Z,18.60
2023-12-14T05:35:37.580Z,18.72
2023-12-14T05:36:37.562Z,18.60
2023-12-14T05:37:37.697Z,18.56
2023-12-14T05:38:37.598Z,18.60
2023-12-14T05:39:37.906Z,18.69
2023-12-14T05:40:37.659Z,18.59
2023-12-14T05:41:37.650Z,18.64
2023-12-14T05:42:37.858Z,18.65
2023-12-14T05:43:37.840Z,18.66
2023-12-14T05:44:37.749Z,18.57
2023-12-14T05:45:37.750Z,18.68
2023-12-14T05:47:38.078Z,18.64
2023-12-14T05:48:37.895Z,18.65
2023-12-14T05:49:37.881Z,18.65
2023-12-14T05:50:37.889Z,18.59
2023-12-14T05:51:37.910Z,18.60
2023-12-14T05:52:38.192Z,18.57
2023-12-14T05:53:38.286Z,18.60
2023-12-14T05:56:40.323Z,18.64
2023-12-14T05:57:38.057Z,18.62
2023-12-14T05:58:38.117Z,18.59
2023-12-14T05:59:38.104Z,18.64
2023-12-14T06:00:38.455Z,18.62
2023-12-14T06:01:38.259Z,18.54
2023-12-14T06:02:38.818Z,18.60
2023-12-14T06:04:38.340Z,18.62
2023-12-14T06:05:38.398Z,18.62
2023-12-14T06:06:38.277Z,18.54
2023-12-14T06:07:38.696Z,18.54
2023-12-14T06:08:38.340Z,18.64
2023-12-14T06:09:38.381Z,18.60
2023-12-14T06:10:38.438Z,18.59
2023-12-14T06:12:38.766Z,18.64
2023-12-14T06:13:38.498Z,18.59
2023-12-14T06:14:38.803Z,18.62
2023-12-14T06:16:38.578Z,18.60
2023-12-14T06:17:38.671Z,18.59
2023-12-14T06:18:38.724Z,18.60
2023-12-14T06:19:38.668Z,18.62
2023-12-14T06:20:38.635Z,18.57
2023-12-14T06:21:38.958Z,18.59
2023-12-14T06:22:38.922Z,18.60
2023-12-14T06:23:38.718Z,18.60
2023-12-14T06:24:38.744Z,18.54
2023-12-14T06:25:38.828Z,18.51
2023-12-14T06:26:38.782Z,18.62
2023-12-14T06:27:38.819Z,18.57
2023-12-14T06:28:39.157Z,18.59
2023-12-14T06:29:38.870Z,18.60
2023-12-14T06:30:39.034Z,18.62
2023-12-14T06:31:38.980Z,18.66
2023-12-14T06:32:39.345Z,18.54
2023-12-14T06:33:39.040Z,18.50
2023-12-14T06:34:39.039Z,18.59
2023-12-14T06:35:39.314Z,18.50
2023-12-14T06:36:39.037Z,18.59
2023-12-14T06:37:39.220Z,18.59
2023-12-14T06:38:39.091Z,18.53
2023-12-14T06:40:39.163Z,18.57
2023-12-14T06:41:39.181Z,18.54
2023-12-14T06:42:39.593Z,18.51
2023-12-14T06:43:39.242Z,18.49
2023-12-14T06:44:39.237Z,18.50
2023-12-14T06:45:39.277Z,18.53
2023-12-14T06:46:39.337Z,18.46
2023-12-14T06:47:39.407Z,18.51
2023-12-14T06:48:39.475Z,18.50
2023-12-14T06:49:39.807Z,18.50
2023-12-14T06:50:39.397Z,18.50
2023-12-14T06:52:40.052Z,18.51
2023-12-14T06:53:39.471Z,18.51
2023-12-14T06:54:39.488Z,18.46
2023-12-14T06:55:39.563Z,18.49
2023-12-14T06:56:39.849Z,18.57
2023-12-14T06:58:39.654Z,18.42
2023-12-14T06:59:39.622Z,18.44
2023-12-14T07:00:39.727Z,18.47
2023-12-14T07:02:40.042Z,18.47
2023-12-14T07:03:39.734Z,18.47
2023-12-14T07:04:39.763Z,18.49
2023-12-14T07:05:39.840Z,18.42
2023-12-14T07:06:39.795Z,18.49
2023-12-14T07:07:39.872Z,18.42
2023-12-14T07:08:40.133Z,18.47
2023-12-14T07:09:39.871Z,18.53
2023-12-14T07:10:39.914Z,18.47
2023-12-14T07:11:39.921Z,18.44
2023-12-14T07:12:39.962Z,18.50
2023-12-14T07:13:40.094Z,18.47
2023-12-14T07:15:40.334Z,18.44
2023-12-14T07:16:40.142Z,18.51
2023-12-14T07:18:40.260Z,18.39
2023-12-14T07:19:40.160Z,18.41
2023-12-14T07:20:40.139Z,18.36
2023-12-14T07:21:40.488Z,18.39
2023-12-14T07:22:40.216Z,18.39
2023-12-14T07:23:40.234Z,18.38
2023-12-14T07:24:48.683Z,18.44
2023-12-14T07:25:40.299Z,18.38
2023-12-14T07:26:40.301Z,18.42
2023-12-14T07:27:40.615Z,18.41
2023-12-14T07:28:40.395Z,18.44
2023-12-14T07:29:40.368Z,18.39
2023-12-14T07:30:40.419Z,18.46
2023-12-14T07:31:40.491Z,18.41
2023-12-14T07:32:40.560Z,18.39
2023-12-14T07:34:40.896Z,18.41
2023-12-14T07:35:40.513Z,18.34
2023-12-14T07:36:40.536Z,18.39
2023-12-14T07:37:40.593Z,18.36
2023-12-14T07:38:40.583Z,18.29
2023-12-14T07:39:40.630Z,18.32
2023-12-14T07:40:40.709Z,18.29
2023-12-14T07:41:40.961Z,18.32
2023-12-14T07:42:40.686Z,18.31
2023-12-14T07:43:40.810Z,18.32
2023-12-14T07:44:40.731Z,18.32
2023-12-14T07:45:40.766Z,18.39
2023-12-14T07:46:40.921Z,18.35
2023-12-14T07:47:40.865Z,18.31
2023-12-14T07:48:41.211Z,18.34
2023-12-14T07:49:40.866Z,18.35
2023-12-14T07:50:40.893Z,18.36
2023-12-14T07:51:40.928Z,18.34
2023-12-14T07:52:40.965Z,18.31
2023-12-14T07:53:40.996Z,18.26
2023-12-14T07:54:40.995Z,18.28
2023-12-14T07:55:41.389Z,18.32
2023-12-14T07:56:41.066Z,18.34
2023-12-14T07:57:41.062Z,18.31
2023-12-14T07:58:41.238Z,18.28
2023-12-14T07:59:41.164Z,18.28
2023-12-14T08:00:41.712Z,18.31
2023-12-14T08:01:41.206Z,18.32
2023-12-14T08:02:41.487Z,18.26
2023-12-14T08:03:41.258Z,18.31
2023-12-14T08:04:41.250Z,18.28
2023-12-14T08:05:41.319Z,18.28
2023-12-14T08:06:41.281Z,18.28
2023-12-14T08:07:41.352Z,18.28
2023-12-14T08:08:41.344Z,18.29
2023-12-14T08:09:41.823Z,18.26
2023-12-14T08:10:41.413Z,18.26
2023-12-14T08:11:41.420Z,18.25
2023-12-14T08:12:41.451Z,18.20
2023-12-14T08:13:42.098Z,18.25
2023-12-14T08:14:42.266Z,18.26
2023-12-14T08:15:41.556Z,18.28
2023-12-14T08:16:41.866Z,18.28
2023-12-14T08:17:41.569Z,18.28
2023-12-14T08:18:44.132Z,18.25
2023-12-14T08:19:42.561Z,18.26
2023-12-14T08:20:42.329Z,18.28
2023-12-14T08:21:42.197Z,18.23
2023-12-14T08:22:42.271Z,18.19
2023-12-14T08:23:42.003Z,18.19
2023-12-14T08:24:41.773Z,18.25
2023-12-14T08:25:41.811Z,18.25
2023-12-14T08:26:41.850Z,18.23
2023-12-14T08:27:41.948Z,18.17
2023-12-14T08:28:42.326Z,18.17
2023-12-14T08:29:41.893Z,18.17
2023-12-14T08:30:42.341Z,18.17
2023-12-14T08:31:42.087Z,18.26
2023-12-14T08:32:42.519Z,18.25
2023-12-14T08:33:42.078Z,18.26
2023-12-14T08:34:42.262Z,18.16
2023-12-14T08:35:42.087Z,18.16
2023-12-14T08:36:42.070Z,18.17
2023-12-14T08:37:42.396Z,18.14
2023-12-14T08:38:42.089Z,18.19
2023-12-14T08:39:42.098Z,18.20
2023-12-14T08:40:42.198Z,18.20
2023-12-14T08:41:42.391Z,18.16
2023-12-14T08:42:42.986Z,18.14
2023-12-14T08:43:42.282Z,18.20
2023-12-14T08:45:42.251Z,18.07
2023-12-14T08:47:42.415Z,18.20
2023-12-14T08:48:42.520Z,18.07
2023-12-14T08:49:42.388Z,18.11
2023-12-14T08:50:42.520Z,18.11
2023-12-14T08:51:42.806Z,18.14
2023-12-14T08:52:42.582Z,18.16
2023-12-14T08:53:42.624Z,18.10
2023-12-14T08:54:42.547Z,18.16
2023-12-14T08:55:42.571Z,18.13
2023-12-14T08:56:42.563Z,18.13
2023-12-14T08:57:42.544Z,18.11
2023-12-14T08:58:43.177Z,18.11
2023-12-14T09:00:42.637Z,18.14
2023-12-14T09:01:42.853Z,18.11
2023-12-14T09:02:42.953Z,18.07
2023-12-14T09:03:42.763Z,18.11
2023-12-14T09:05:42.880Z,18.11
2023-12-14T09:06:42.790Z,17.99
2023-12-14T09:07:42.799Z,18.13
2023-12-14T09:08:42.831Z,18.09
2023-12-14T09:09:42.845Z,18.05
2023-12-14T09:10:43.196Z,18.02
2023-12-14T09:11:42.887Z,18.04
2023-12-14T09:12:42.919Z,18.09
2023-12-14T09:13:42.952Z,18.09
2023-12-14T09:14:42.967Z,18.09
2023-12-14T09:16:43.353Z,18.07
2023-12-14T09:17:43.396Z,18.09
2023-12-14T09:19:43.158Z,18.05
2023-12-14T09:20:43.115Z,18.02
2023-12-14T09:21:46.669Z,18.09
2023-12-14T09:22:43.280Z,18.10
2023-12-14T09:23:43.493Z,18.05
2023-12-14T09:24:43.210Z,18.02
2023-12-14T09:25:43.312Z,17.99
2023-12-14T09:26:43.265Z,18.09
2023-12-14T09:27:43.278Z,18.11
2023-12-14T09:28:43.408Z,18.04
2023-12-14T09:29:43.340Z,18.07
2023-12-14T09:30:43.985Z,17.94
2023-12-14T09:31:43.607Z,18.02
2023-12-14T09:32:43.985Z,18.09
2023-12-14T09:33:43.522Z,17.99
2023-12-14T09:34:43.510Z,18.04
2023-12-14T09:35:43.567Z,17.95
2023-12-14T09:36:43.565Z,18.01
2023-12-14T09:37:43.937Z,17.98
2023-12-14T09:38:48.671Z,18.04
2023-12-14T09:39:45.908Z,18.05
2023-12-14T09:41:43.636Z,18.02
2023-12-14T09:42:43.674Z,18.04
2023-12-14T09:43:46.379Z,18.02
2023-12-14T09:44:44.116Z,18.02
2023-12-14T09:45:43.930Z,17.98
2023-12-14T09:46:43.790Z,17.96
2023-12-14T09:47:43.951Z,17.99
2023-12-14T09:48:43.898Z,17.96
2023-12-14T09:49:43.953Z,17.98
2023-12-14T09:50:43.896Z,17.99
2023-12-14T09:51:44.188Z,18.01
2023-12-14T09:52:43.946Z,17.98
2023-12-14T09:53:43.926Z,17.98
2023-12-14T09:54:43.968Z,17.99
2023-12-14T09:55:43.995Z,17.95
2023-12-14T09:56:43.994Z,18.01
2023-12-14T09:57:44.016Z,17.91
2023-12-14T09:58:44.365Z,17.99
2023-12-14T09:59:44.070Z,18.02
2023-12-14T10:00:44.153Z,17.94
2023-12-14T10:01:46.641Z,17.95
2023-12-14T10:02:44.141Z,18.01
2023-12-14T10:03:44.176Z,18.02
2023-12-14T10:04:44.251Z,17.94
2023-12-14T10:05:44.651Z,18.01
2023-12-14T10:06:44.302Z,17.94
2023-12-14T10:07:44.290Z,17.94
2023-12-14T10:08:44.286Z,17.96
2023-12-14T10:09:44.313Z,18.04
2023-12-14T10:10:44.390Z,18.04
2023-12-14T10:11:44.358Z,17.95
2023-12-14T10:12:44.691Z,18.02
2023-12-14T10:13:44.426Z,17.98
2023-12-14T10:14:44.439Z,17.98
2023-12-14T10:15:44.497Z,17.95
2023-12-14T10:16:44.495Z,18.02
2023-12-14T10:17:44.608Z,17.96
2023-12-14T10:18:44.615Z,17.94
2023-12-14T10:19:45.016Z,17.98
2023-12-14T10:20:44.582Z,17.95
2023-12-14T10:21:44.611Z,17.96
2023-12-14T10:22:44.671Z,17.95
2023-12-14T10:23:44.689Z,17.91
2023-12-14T10:24:44.695Z,18.02
2023-12-14T10:25:44.716Z,17.92
2023-12-14T10:26:45.051Z,17.94
2023-12-14T10:27:44.808Z,17.95
2023-12-14T10:28:44.836Z,17.96
2023-12-14T10:29:46.150Z,18.01
2023-12-14T10:30:44.953Z,18.02
2023-12-14T10:31:45.280Z,17.94
2023-12-14T10:32:45.020Z,17.99
2023-12-14T10:33:45.431Z,17.98
2023-12-14T10:34:44.970Z,17.91
2023-12-14T10:35:44.954Z,17.94
2023-12-14T10:36:44.977Z,17.94
2023-12-14T10:37:45.036Z,17.95
2023-12-14T10:39:45.149Z,17.94
2023-12-14T10:40:45.449Z,17.91
2023-12-14T10:41:45.098Z,18.02
2023-12-14T10:42:45.210Z,17.96
2023-12-14T10:43:49.431Z,17.94
2023-12-14T10:45:05.095Z,17.94
2023-12-14T10:45:45.229Z,18.01
2023-12-14T10:46:45.263Z,17.99
2023-12-14T10:47:47.497Z,17.99
2023-12-14T10:48:45.363Z,18.01
2023-12-14T10:49:45.319Z,17.95
2023-12-14T10:50:45.321Z,18.02
2023-12-14T10:51:47.209Z,18.01
2023-12-14T10:52:45.386Z,17.95
2023-12-14T10:53:45.396Z,17.99
2023-12-14T10:54:45.728Z,17.92
2023-12-14T10:55:45.522Z,18.01
2023-12-14T10:56:45.550Z,18.05
2023-12-14T10:57:46.997Z,17.98
2023-12-14T10:58:45.567Z,17.95
2023-12-14T10:59:45.546Z,17.94
2023-12-14T11:00:45.565Z,17.96
2023-12-14T11:01:45.927Z,18.02
2023-12-14T11:02:45.615Z,17.96
2023-12-14T11:03:45.647Z,17.96
2023-12-14T11:04:45.727Z,17.95
2023-12-14T11:05:45.783Z,17.99
2023-12-14T11:06:45.727Z,18.02
2023-12-14T11:07:46.098Z,17.98
2023-12-14T11:08:45.780Z,17.98
2023-12-14T11:09:45.792Z,17.95
2023-12-14T11:10:45.843Z,18.02
2023-12-14T11:11:45.837Z,17.94
2023-12-14T11:12:45.863Z,17.96
2023-12-14T11:13:46.212Z,17.94
2023-12-14T11:14:45.953Z,17.94
2023-12-14T11:15:45.946Z,18.01
2023-12-14T11:16:46.061Z,18.01
2023-12-14T11:17:46.076Z,17.98
2023-12-14T11:18:46.066Z,17.92
2023-12-14T11:19:47.752Z,18.01
2023-12-14T11:20:46.235Z,17.94
2023-12-14T11:21:46.089Z,17.95
2023-12-14T11:22:46.141Z,17.99
2023-12-14T11:23:46.132Z,17.96
2023-12-14T11:24:46.160Z,17.98
2023-12-14T11:25:47.728Z,17.98
2023-12-14T11:26:46.611Z,17.98
2023-12-14T11:27:46.242Z,17.99
2023-12-14T11:28:46.254Z,18.01
2023-12-14T11:29:46.286Z,18.02
2023-12-14T11:30:54.785Z,17.99
2023-12-14T11:31:46.375Z,18.01
2023-12-14T11:32:46.382Z,17.91
2023-12-14T11:33:46.768Z,17.92
2023-12-14T11:34:46.460Z,17.95
2023-12-14T11:35:46.418Z,18.02
2023-12-14T11:36:46.443Z,17.96
2023-12-14T11:37:46.486Z,17.96
2023-12-14T11:38:46.505Z,18.04
2023-12-14T11:39:46.541Z,17.94
2023-12-14T11:40:46.846Z,18.04
2023-12-14T11:41:46.575Z,17.98
2023-12-14T11:42:46.594Z,17.99
2023-12-14T11:43:46.701Z,17.99
2023-12-14T11:44:46.643Z,18.01
2023-12-14T11:45:46.687Z,17.95
2023-12-14T11:46:46.720Z,17.99
2023-12-14T11:47:47.146Z,17.95
2023-12-14T11:48:46.786Z,18.01
2023-12-14T11:50:46.837Z,17.98
2023-12-14T11:51:46.815Z,17.96
2023-12-14T11:52:46.869Z,17.94
2023-12-14T11:53:46.874Z,17.98
2023-12-14T11:54:47.198Z,17.94
2023-12-14T11:55:46.949Z,17.95
2023-12-14T11:56:46.943Z,17.96
2023-12-14T11:57:46.975Z,17.86
2023-12-14T11:58:47.008Z,17.99
2023-12-14T11:59:47.004Z,17.99
2023-12-14T12:00:47.046Z,17.98
2023-12-14T12:01:47.361Z,17.87
2023-12-14T12:02:47.114Z,17.96
2023-12-14T12:03:47.177Z,17.95
2023-12-14T12:04:47.207Z,17.99
2023-12-14T12:05:47.590Z,17.92
2023-12-14T12:06:47.211Z,17.98
2023-12-14T12:07:47.324Z,17.96
2023-12-14T12:08:47.545Z,17.95
2023-12-14T12:09:47.254Z,17.95
2023-12-14T12:10:47.359Z,17.98
2023-12-14T12:11:47.345Z,18.01
2023-12-14T12:12:47.337Z,17.99
2023-12-14T12:13:47.431Z,17.99
2023-12-14T12:14:47.373Z,18.05
2023-12-14T12:15:47.722Z,17.99
2023-12-14T12:16:47.475Z,18.02
2023-12-14T12:17:47.493Z,18.07
2023-12-14T12:18:47.604Z,18.02
2023-12-14T12:19:47.510Z,17.98
2023-12-14T12:20:47.524Z,17.99
2023-12-14T12:21:47.560Z,18.07
2023-12-14T12:22:47.880Z,17.99
2023-12-14T12:23:47.622Z,18.05
2023-12-14T12:24:50.914Z,18.01
2023-12-14T12:25:47.661Z,17.98
2023-12-14T12:26:47.749Z,18.02
2023-12-14T12:27:47.698Z,18.05
2023-12-14T12:28:47.752Z,18.04
2023-12-14T12:29:48.056Z,17.99
2023-12-14T12:30:47.782Z,17.99
2023-12-14T12:31:47.826Z,17.99
2023-12-14T12:32:47.845Z,18.01
2023-12-14T12:33:47.894Z,17.98
2023-12-14T12:34:47.979Z,17.99
2023-12-14T12:35:47.891Z,17.96
2023-12-14T12:36:48.213Z,17.99
2023-12-14T12:37:47.974Z,18.01
2023-12-14T12:38:47.989Z,17.98
2023-12-14T12:39:47.994Z,18.02
2023-12-14T12:40:48.083Z,17.99
2023-12-14T12:41:48.045Z,17.98
2023-12-14T12:42:48.086Z,17.99
2023-12-14T12:44:48.118Z,18.13
2023-12-14T12:45:48.157Z,18.09
2023-12-14T12:46:57.839Z,17.99
2023-12-14T12:47:48.302Z,18.05
2023-12-14T12:48:48.373Z,18.07
2023-12-14T12:49:48.338Z,18.07
2023-12-14T12:50:48.618Z,18.05
2023-12-14T12:51:48.371Z,18.09
2023-12-14T12:52:48.340Z,18.07
2023-12-14T12:53:48.337Z,17.99
2023-12-14T12:54:48.457Z,18.09
2023-12-14T12:55:48.423Z,18.09
2023-12-14T12:56:48.411Z,18.13
2023-12-14T12:57:48.743Z,18.04
2023-12-14T12:58:48.577Z,18.16
2023-12-14T12:59:48.477Z,18.14
2023-12-14T13:00:48.590Z,18.05
2023-12-14T13:01:48.640Z,18.20
2023-12-14T13:02:48.616Z,18.11
2023-12-14T13:03:48.591Z,18.17
2023-12-14T13:04:48.926Z,18.19
2023-12-14T13:05:48.739Z,18.25
2023-12-14T13:06:48.686Z,18.21
2023-12-14T13:07:49.118Z,18.21
2023-12-14T13:08:48.710Z,18.28
2023-12-14T13:09:48.726Z,18.31
2023-12-14T13:10:49.326Z,18.31
2023-12-14T13:11:48.815Z,18.26
2023-12-14T13:12:48.808Z,18.32
2023-12-14T13:13:48.955Z,18.41
2023-12-14T13:14:48.850Z,18.41
2023-12-14T13:15:48.881Z,18.35
2023-12-14T13:16:49.318Z,18.47
2023-12-14T13:17:49.847Z,18.47
2023-12-14T13:18:49.045Z,18.46
2023-12-14T13:19:49.002Z,18.46
2023-12-14T13:20:49.080Z,18.49
2023-12-14T13:21:49.014Z,18.51
2023-12-14T13:22:49.397Z,18.57
2023-12-14T13:23:49.105Z,18.62
2023-12-14T13:24:49.094Z,18.60
2023-12-14T13:25:49.154Z,18.57
2023-12-14T13:26:49.146Z,18.59
2023-12-14T13:27:49.166Z,18.66
2023-12-14T13:28:50.298Z,18.62
2023-12-14T13:29:49.529Z,18.64
2023-12-14T13:30:49.343Z,18.64
2023-12-14T13:31:49.331Z,18.66
2023-12-14T13:32:49.367Z,18.69
2023-12-14T13:33:49.384Z,18.68
2023-12-14T13:34:49.591Z,18.66
2023-12-14T13:35:49.562Z,18.71
2023-12-14T13:36:49.694Z,18.75
2023-12-14T13:37:50.542Z,18.76
2023-12-14T13:38:50.380Z,18.74
2023-12-14T13:39:49.471Z,18.75
2023-12-14T13:40:49.520Z,18.78
2023-12-14T13:41:50.972Z,18.74
2023-12-14T13:42:58.985Z,18.78
2023-12-14T13:43:49.891Z,18.86
2023-12-14T13:44:49.616Z,18.78
2023-12-14T13:46:01.525Z,18.79
2023-12-14T13:46:49.651Z,18.82
2023-12-14T13:47:49.726Z,18.75
2023-12-14T13:48:49.846Z,18.78